sensor_id;sensor_type;location;lat;lon;timestamp;pressure;altitude;pressure_sealevel;temperature;humidity
63493;BME280;49638;47.526;10.028;2023-04-21T00:01:27;91189.03;;;3.38;96.18
63493;BME280;49638;47.526;10.028;2023-04-21T00:04:28;91186.00;;;3.41;96.16
63493;BME280;49638;47.526;10.028;2023-04-21T00:07:29;91181.34;;;3.43;95.77
63493;BME280;49638;47.526;10.028;2023-04-21T00:10:29;91148.84;;;3.39;95.69
63493;BME280;49638;47.526;10.028;2023-04-21T00:13:29;91164.47;;;3.45;95.50
63493;BME280;49638;47.526;10.028;2023-04-21T00:16:30;91159.28;;;3.39;95.76
63493;BME280;49638;47.526;10.028;2023-04-21T00:19:31;91153.94;;;3.34;96.01
63493;BME280;49638;47.526;10.028;2023-04-21T00:22:31;91143.41;;;3.15;96.31
63493;BME280;49638;47.526;10.028;2023-04-21T00:25:32;91145.03;;;3.16;96.50
63493;BME280;49638;47.526;10.028;2023-04-21T00:28:32;91148.84;;;3.14;96.72
63493;BME280;49638;47.526;10.028;2023-04-21T00:31:32;91130.88;;;2.99;96.43
63493;BME280;49638;47.526;10.028;2023-04-21T00:34:33;91135.53;;;2.97;96.58
63493;BME280;49638;47.526;10.028;2023-04-21T00:37:33;91140.41;;;2.87;96.54
63493;BME280;49638;47.526;10.028;2023-04-21T00:40:34;91142.69;;;2.76;97.26
63493;BME280;49638;47.526;10.028;2023-04-21T00:43:34;91138.28;;;2.70;97.60
63493;BME280;49638;47.526;10.028;2023-04-21T00:46:35;91131.47;;;2.69;97.81
63493;BME280;49638;47.526;10.028;2023-04-21T00:49:36;91125.84;;;2.72;97.97
63493;BME280;49638;47.526;10.028;2023-04-21T00:52:38;91119.84;;;2.72;98.16
63493;BME280;49638;47.526;10.028;2023-04-21T00:55:39;91117.34;;;2.83;97.97
63493;BME280;49638;47.526;10.028;2023-04-21T00:58:41;91106.47;;;2.87;97.43
63493;BME280;49638;47.526;10.028;2023-04-21T01:01:41;91108.81;;;2.95;97.21
63493;BME280;49638;47.526;10.028;2023-04-21T01:04:42;91096.19;;;2.92;97.04
63493;BME280;49638;47.526;10.028;2023-04-21T01:07:44;91112.19;;;3.02;97.26
63493;BME280;49638;47.526;10.028;2023-04-21T01:10:45;91102.09;;;3.05;97.21
63493;BME280;49638;47.526;10.028;2023-04-21T01:13:45;91104.28;;;3.08;97.51
63493;BME280;49638;47.526;10.028;2023-04-21T01:16:46;91109.09;;;3.12;97.50
63493;BME280;49638;47.526;10.028;2023-04-21T01:19:47;91115.47;;;3.16;97.29
63493;BME280;49638;47.526;10.028;2023-04-21T01:22:47;91102.88;;;3.13;97.37
63493;BME280;49638;47.526;10.028;2023-04-21T01:25:51;91105.22;;;3.21;97.52
63493;BME280;49638;47.526;10.028;2023-04-21T01:28:55;91085.97;;;3.15;97.79
63493;BME280;49638;47.526;10.028;2023-04-21T01:31:56;91072.06;;;3.21;97.98
63493;BME280;49638;47.526;10.028;2023-04-21T01:34:57;91058.56;;;3.24;97.77
63493;BME280;49638;47.526;10.028;2023-04-21T01:37:58;91091.75;;;3.42;97.61
63493;BME280;49638;47.526;10.028;2023-04-21T01:40:58;91088.94;;;3.44;97.72
63493;BME280;49638;47.526;10.028;2023-04-21T01:43:59;91088.94;;;3.44;97.76
63493;BME280;49638;47.526;10.028;2023-04-21T01:47:00;91089.38;;;3.41;97.94
63493;BME280;49638;47.526;10.028;2023-04-21T01:50:01;91096.97;;;3.42;98.04
63493;BME280;49638;47.526;10.028;2023-04-21T01:53:01;91108.03;;;3.44;98.11
63493;BME280;49638;47.526;10.028;2023-04-21T01:56:01;91091.13;;;3.47;97.88
63493;BME280;49638;47.526;10.028;2023-04-21T01:59:01;91086.84;;;3.52;97.60
63493;BME280;49638;47.526;10.028;2023-04-21T02:02:03;91095.25;;;3.54;97.22
63493;BME280;49638;47.526;10.028;2023-04-21T02:05:04;91079.41;;;3.49;97.42
63493;BME280;49638;47.526;10.028;2023-04-21T02:08:04;91099.84;;;3.59;97.64
63493;BME280;49638;47.526;10.028;2023-04-21T02:11:05;91103.66;;;3.56;97.27
63493;BME280;49638;47.526;10.028;2023-04-21T02:14:06;91118.59;;;3.49;97.58
63493;BME280;49638;47.526;10.028;2023-04-21T02:17:06;91111.44;;;3.45;97.65
63493;BME280;49638;47.526;10.028;2023-04-21T02:20:07;91110.25;;;3.41;97.78
63493;BME280;49638;47.526;10.028;2023-04-21T02:23:07;91114.28;;;3.43;97.80
63493;BME280;49638;47.526;10.028;2023-04-21T02:26:08;91116.28;;;3.41;97.87
63493;BME280;49638;47.526;10.028;2023-04-21T02:29:08;91123.09;;;3.42;97.96
63493;BME280;49638;47.526;10.028;2023-04-21T02:32:08;91133.13;;;3.45;97.92
63493;BME280;49638;47.526;10.028;2023-04-21T02:35:09;91132.69;;;3.48;97.84
63493;BME280;49638;47.526;10.028;2023-04-21T02:38:09;91122.03;;;3.50;97.63
63493;BME280;49638;47.526;10.028;2023-04-21T02:41:10;91116.59;;;3.51;97.26
63493;BME280;49638;47.526;10.028;2023-04-21T02:44:10;91136.03;;;3.55;97.40
63493;BME280;49638;47.526;10.028;2023-04-21T02:47:10;91128.50;;;3.47;97.98
63493;BME280;49638;47.526;10.028;2023-04-21T02:50:12;91128.91;;;3.44;98.12
63493;BME280;49638;47.526;10.028;2023-04-21T02:53:12;91118.09;;;3.41;98.66
63493;BME280;49638;47.526;10.028;2023-04-21T02:56:13;91118.09;;;3.41;98.65
63493;BME280;49638;47.526;10.028;2023-04-21T02:59:13;91102.69;;;3.32;98.87
63493;BME280;49638;47.526;10.028;2023-04-21T03:02:15;91107.13;;;3.32;99.10
63493;BME280;49638;47.526;10.028;2023-04-21T03:05:15;91106.91;;;3.34;99.26
63493;BME280;49638;47.526;10.028;2023-04-21T03:08:16;91089.31;;;3.22;99.46
63493;BME280;49638;47.526;10.028;2023-04-21T03:11:16;91094.47;;;3.29;99.33
63493;BME280;49638;47.526;10.028;2023-04-21T03:14:17;91108.28;;;3.36;99.08
63493;BME280;49638;47.526;10.028;2023-04-21T03:17:17;91115.50;;;3.41;99.17
63493;BME280;49638;47.526;10.028;2023-04-21T03:20:17;91116.50;;;3.40;99.02
63493;BME280;49638;47.526;10.028;2023-04-21T03:23:17;91116.28;;;3.41;99.10
63493;BME280;49638;47.526;10.028;2023-04-21T03:26:18;91121.88;;;3.45;99.00
63493;BME280;49638;47.526;10.028;2023-04-21T03:29:18;91123.84;;;3.49;98.85
63493;BME280;49638;47.526;10.028;2023-04-21T03:32:18;91123.78;;;3.56;98.54
63493;BME280;49638;47.526;10.028;2023-04-21T03:35:18;91130.19;;;3.60;98.38
63493;BME280;49638;47.526;10.028;2023-04-21T03:38:19;91133.16;;;3.64;98.03
63493;BME280;49638;47.526;10.028;2023-04-21T03:41:19;91144.97;;;3.66;98.00
63493;BME280;49638;47.526;10.028;2023-04-21T03:44:19;91142.16;;;3.68;98.06
63493;BME280;49638;47.526;10.028;2023-04-21T03:47:20;91152.81;;;3.66;97.97
63493;BME280;49638;47.526;10.028;2023-04-21T03:50:20;91151.22;;;3.65;98.02
63493;BME280;49638;47.526;10.028;2023-04-21T03:53:20;91163.28;;;3.66;98.36
63493;BME280;49638;47.526;10.028;2023-04-21T03:56:20;91164.06;;;3.67;98.17
63493;BME280;49638;47.526;10.028;2023-04-21T03:59:21;91161.09;;;3.63;98.15
63493;BME280;49638;47.526;10.028;2023-04-21T04:02:21;91177.13;;;3.67;98.16
63493;BME280;49638;47.526;10.028;2023-04-21T04:05:21;91169.94;;;3.62;98.54
63493;BME280;49638;47.526;10.028;2023-04-21T04:08:22;91180.03;;;3.59;98.67
63493;BME280;49638;47.526;10.028;2023-04-21T04:11:22;91179.25;;;3.58;98.84
63493;BME280;49638;47.526;10.028;2023-04-21T04:14:22;91174.88;;;3.52;99.13
63493;BME280;49638;47.526;10.028;2023-04-21T04:17:22;91180.50;;;3.49;99.46
63493;BME280;49638;47.526;10.028;2023-04-21T04:20:23;91174.28;;;3.50;99.45
63493;BME280;49638;47.526;10.028;2023-04-21T04:23:23;91158.06;;;3.41;99.36
63493;BME280;49638;47.526;10.028;2023-04-21T04:26:24;91170.22;;;3.54;99.35
63493;BME280;49638;47.526;10.028;2023-04-21T04:29:24;91172.41;;;3.57;99.21
63493;BME280;49638;47.526;10.028;2023-04-21T04:32:26;91168.63;;;3.53;98.90
63493;BME280;49638;47.526;10.028;2023-04-21T04:35:29;91159.25;;;3.45;99.21
63493;BME280;49638;47.526;10.028;2023-04-21T04:38:29;91156.84;;;3.44;99.19
63493;BME280;49638;47.526;10.028;2023-04-21T04:41:29;91145.25;;;3.40;99.42
63493;BME280;49638;47.526;10.028;2023-04-21T04:44:29;91152.19;;;3.46;99.45
63493;BME280;49638;47.526;10.028;2023-04-21T04:47:30;91150.19;;;3.48;99.43
63493;BME280;49638;47.526;10.028;2023-04-21T04:50:31;91157.16;;;3.54;99.08
63493;BME280;49638;47.526;10.028;2023-04-21T04:53:31;91130.56;;;3.39;98.92
63493;BME280;49638;47.526;10.028;2023-04-21T04:56:31;91136.28;;;3.54;98.94
63493;BME280;49638;47.526;10.028;2023-04-21T04:59:32;91145.28;;;3.58;98.82
63493;BME280;49638;47.526;10.028;2023-04-21T05:02:32;91153.00;;;3.71;98.94
63493;BME280;49638;47.526;10.028;2023-04-21T05:05:32;91154.75;;;3.77;98.88
63493;BME280;49638;47.526;10.028;2023-04-21T05:08:33;91150.09;;;3.79;99.13
63493;BME280;49638;47.526;10.028;2023-04-21T05:11:33;91156.03;;;3.87;99.11
63493;BME280;49638;47.526;10.028;2023-04-21T05:14:33;91149.53;;;3.96;98.99
63493;BME280;49638;47.526;10.028;2023-04-21T05:17:33;91151.63;;;4.06;99.25
63493;BME280;49638;47.526;10.028;2023-04-21T05:20:34;91159.69;;;4.22;99.10
63493;BME280;49638;47.526;10.028;2023-04-21T05:23:34;91157.22;;;4.27;99.06
63493;BME280;49638;47.526;10.028;2023-04-21T05:26:34;91156.22;;;4.29;99.12
63493;BME280;49638;47.526;10.028;2023-04-21T05:29:35;91155.19;;;4.30;99.23
63493;BME280;49638;47.526;10.028;2023-04-21T05:32:35;91154.75;;;4.33;99.21
63493;BME280;49638;47.526;10.028;2023-04-21T05:35:35;91139.13;;;4.26;98.88
63493;BME280;49638;47.526;10.028;2023-04-21T05:38:36;91155.91;;;4.37;99.04
63493;BME280;49638;47.526;10.028;2023-04-21T05:41:37;91146.03;;;4.39;99.18
63493;BME280;49638;47.526;10.028;2023-04-21T05:44:37;91138.97;;;4.39;98.99
63493;BME280;49638;47.526;10.028;2023-04-21T05:47:38;91150.97;;;4.47;99.04
63493;BME280;49638;47.526;10.028;2023-04-21T05:50:39;91148.03;;;4.55;99.36
63493;BME280;49638;47.526;10.028;2023-04-21T05:53:40;91149.31;;;4.64;99.48
63493;BME280;49638;47.526;10.028;2023-04-21T05:56:40;91144.50;;;4.80;98.59
63493;BME280;49638;47.526;10.028;2023-04-21T05:59:40;91141.22;;;4.84;98.82
63493;BME280;49638;47.526;10.028;2023-04-21T06:02:41;91124.00;;;4.77;98.36
63493;BME280;49638;47.526;10.028;2023-04-21T06:05:41;91146.38;;;5.03;98.16
63493;BME280;49638;47.526;10.028;2023-04-21T06:08:42;91140.34;;;5.02;98.29
63493;BME280;49638;47.526;10.028;2023-04-21T06:11:42;91132.84;;;5.06;98.61
63493;BME280;49638;47.526;10.028;2023-04-21T06:14:42;91141.41;;;5.13;98.33
63493;BME280;49638;47.526;10.028;2023-04-21T06:17:42;91133.44;;;5.19;98.42
63493;BME280;49638;47.526;10.028;2023-04-21T06:20:49;91141.59;;;5.41;98.10
63493;BME280;49638;47.526;10.028;2023-04-21T06:23:49;91131.34;;;5.52;97.82
63493;BME280;49638;47.526;10.028;2023-04-21T06:26:51;91128.38;;;5.83;98.53
63493;BME280;49638;47.526;10.028;2023-04-21T06:29:54;91122.78;;;6.27;98.09
63493;BME280;49638;47.526;10.028;2023-04-21T06:32:55;91123.06;;;6.54;97.62
63493;BME280;49638;47.526;10.028;2023-04-21T06:35:55;91121.25;;;6.83;97.04
63493;BME280;49638;47.526;10.028;2023-04-21T06:38:55;91099.44;;;6.99;96.67
63493;BME280;49638;47.526;10.028;2023-04-21T06:41:56;91113.50;;;7.22;96.32
63493;BME280;49638;47.526;10.028;2023-04-21T06:44:57;91109.53;;;7.36;95.63
63493;BME280;49638;47.526;10.028;2023-04-21T06:47:57;91094.25;;;7.50;95.42
63493;BME280;49638;47.526;10.028;2023-04-21T06:50:57;91110.56;;;7.86;95.16
63493;BME280;49638;47.526;10.028;2023-04-21T06:53:59;91103.31;;;8.15;94.79
63493;BME280;49638;47.526;10.028;2023-04-21T06:57:00;91105.19;;;8.36;93.94
63493;BME280;49638;47.526;10.028;2023-04-21T07:00:01;91121.69;;;8.48;93.75
63493;BME280;49638;47.526;10.028;2023-04-21T07:03:01;91108.78;;;8.47;93.12
63493;BME280;49638;47.526;10.028;2023-04-21T07:06:02;91112.81;;;8.76;92.73
63493;BME280;49638;47.526;10.028;2023-04-21T07:09:02;91112.75;;;8.93;92.77
63493;BME280;49638;47.526;10.028;2023-04-21T07:12:02;91116.91;;;9.16;92.17
63493;BME280;49638;47.526;10.028;2023-04-21T07:15:03;91115.16;;;9.27;91.92
63493;BME280;49638;47.526;10.028;2023-04-21T07:18:04;91110.31;;;9.46;91.92
63493;BME280;49638;47.526;10.028;2023-04-21T07:21:04;91116.03;;;9.65;90.33
63493;BME280;49638;47.526;10.028;2023-04-21T07:24:04;91116.28;;;9.63;89.15
63493;BME280;49638;47.526;10.028;2023-04-21T07:27:05;91108.75;;;9.45;88.86
63493;BME280;49638;47.526;10.028;2023-04-21T07:30:06;91118.91;;;9.31;89.26
63493;BME280;49638;47.526;10.028;2023-04-21T07:33:06;91120.88;;;9.19;89.04
63493;BME280;49638;47.526;10.028;2023-04-21T07:36:08;91116.88;;;9.11;89.26
63493;BME280;49638;47.526;10.028;2023-04-21T07:39:08;91118.72;;;9.11;89.53
63493;BME280;49638;47.526;10.028;2023-04-21T07:42:08;91111.63;;;9.16;88.89
63493;BME280;49638;47.526;10.028;2023-04-21T07:45:10;91110.63;;;9.22;89.16
63493;BME280;49638;47.526;10.028;2023-04-21T07:48:10;91114.63;;;9.25;89.64
63493;BME280;49638;47.526;10.028;2023-04-21T07:51:11;91114.66;;;9.30;89.91
63493;BME280;49638;47.526;10.028;2023-04-21T07:54:11;91110.66;;;9.55;89.72
63493;BME280;49638;47.526;10.028;2023-04-21T07:57:11;91112.91;;;9.73;89.57
63493;BME280;49638;47.526;10.028;2023-04-21T08:00:12;91102.78;;;9.92;90.08
63493;BME280;49638;47.526;10.028;2023-04-21T08:03:12;91097.91;;;10.16;88.82
63493;BME280;49638;47.526;10.028;2023-04-21T08:06:13;91106.75;;;10.37;89.03
63493;BME280;49638;47.526;10.028;2023-04-21T08:09:13;91086.47;;;10.53;89.17
63493;BME280;49638;47.526;10.028;2023-04-21T08:12:13;91095.03;;;10.70;87.90
63493;BME280;49638;47.526;10.028;2023-04-21T08:15:13;91108.00;;;10.82;87.88
63493;BME280;49638;47.526;10.028;2023-04-21T08:18:14;91105.41;;;10.92;87.18
63493;BME280;49638;47.526;10.028;2023-04-21T08:21:16;91103.06;;;11.06;87.01
63493;BME280;49638;47.526;10.028;2023-04-21T08:24:16;91109.16;;;11.17;86.97
63493;BME280;49638;47.526;10.028;2023-04-21T08:27:16;91099.91;;;11.19;86.70
63493;BME280;49638;47.526;10.028;2023-04-21T08:30:17;91106.28;;;11.23;86.34
63493;BME280;49638;47.526;10.028;2023-04-21T08:33:17;91095.69;;;11.18;85.85
63493;BME280;49638;47.526;10.028;2023-04-21T08:36:18;91087.22;;;11.16;85.49
63493;BME280;49638;47.526;10.028;2023-04-21T08:39:19;91108.13;;;11.23;84.99
63493;BME280;49638;47.526;10.028;2023-04-21T08:42:19;91112.59;;;11.17;85.23
63493;BME280;49638;47.526;10.028;2023-04-21T08:45:20;91102.81;;;11.07;85.22
63493;BME280;49638;47.526;10.028;2023-04-21T08:48:21;91099.91;;;11.09;85.04
63493;BME280;49638;47.526;10.028;2023-04-21T08:51:23;91103.63;;;11.18;85.68
63493;BME280;49638;47.526;10.028;2023-04-21T08:54:26;91093.28;;;11.17;85.24
63493;BME280;49638;47.526;10.028;2023-04-21T08:57:26;91098.88;;;11.15;85.50
63493;BME280;49638;47.526;10.028;2023-04-21T09:00:27;91112.31;;;11.13;85.53
63493;BME280;49638;47.526;10.028;2023-04-21T09:03:27;91094.59;;;11.04;85.19
63493;BME280;49638;47.526;10.028;2023-04-21T09:06:39;91094.59;;;10.99;82.53
63493;BME280;49638;47.526;10.028;2023-04-21T09:09:52;91105.16;;;11.04;83.28
63493;BME280;49638;47.526;10.028;2023-04-21T09:12:53;91107.53;;;10.95;85.15
63493;BME280;49638;47.526;10.028;2023-04-21T09:15:53;91101.97;;;10.92;85.09
63493;BME280;49638;47.526;10.028;2023-04-21T09:18:53;91108.06;;;10.97;85.09
63493;BME280;49638;47.526;10.028;2023-04-21T09:21:55;91095.63;;;10.93;85.22
63493;BME280;49638;47.526;10.028;2023-04-21T09:24:57;91101.97;;;10.92;84.72
63493;BME280;49638;47.526;10.028;2023-04-21T09:27:59;91104.63;;;10.92;84.44
63493;BME280;49638;47.526;10.028;2023-04-21T09:31:00;91106.97;;;10.93;84.36
63493;BME280;49638;47.526;10.028;2023-04-21T09:34:00;91101.97;;;10.92;83.90
63493;BME280;49638;47.526;10.028;2023-04-21T09:37:03;91111.22;;;10.89;82.11
63493;BME280;49638;47.526;10.028;2023-04-21T09:40:05;91108.56;;;10.84;82.85
63493;BME280;49638;47.526;10.028;2023-04-21T09:43:06;91112.50;;;10.81;82.24
63493;BME280;49638;47.526;10.028;2023-04-21T09:46:06;91107.19;;;10.76;81.78
63493;BME280;49638;47.526;10.028;2023-04-21T09:49:08;91107.47;;;10.75;81.40
63493;BME280;49638;47.526;10.028;2023-04-21T09:52:10;91109.31;;;10.74;81.14
63493;BME280;49638;47.526;10.028;2023-04-21T09:55:12;91114.59;;;10.74;80.53
63493;BME280;49638;47.526;10.028;2023-04-21T09:58:13;91118.59;;;10.77;80.29
63493;BME280;49638;47.526;10.028;2023-04-21T10:01:15;91115.66;;;10.78;80.06
63493;BME280;49638;47.526;10.028;2023-04-21T10:04:17;91118.31;;;10.83;79.57
63493;BME280;49638;47.526;10.028;2023-04-21T10:07:17;91091.59;;;10.75;79.02
63493;BME280;49638;47.526;10.028;2023-04-21T10:10:28;91096.09;;;10.79;77.81
63493;BME280;49638;47.526;10.028;2023-04-21T10:13:31;91098.78;;;10.89;77.98
63493;BME280;49638;47.526;10.028;2023-04-21T10:16:35;91098.81;;;11.00;75.98
63493;BME280;49638;47.526;10.028;2023-04-21T10:19:47;91098.81;;;10.95;73.24
63493;BME280;49638;47.526;10.028;2023-04-21T10:22:56;91100.16;;;10.97;72.50
63493;BME280;49638;47.526;10.028;2023-04-21T10:26:04;91101.44;;;11.00;75.92
63493;BME280;49638;47.526;10.028;2023-04-21T10:29:06;91101.72;;;11.03;76.78
63493;BME280;49638;47.526;10.028;2023-04-21T10:32:08;91097.53;;;11.07;76.90
63493;BME280;49638;47.526;10.028;2023-04-21T10:35:21;91090.38;;;11.13;72.74
63493;BME280;49638;47.526;10.028;2023-04-21T10:38:42;91103.63;;;11.23;71.97
63493;BME280;49638;47.526;10.028;2023-04-21T10:41:43;91097.56;;;11.28;76.25
63493;BME280;49638;47.526;10.028;2023-04-21T10:47:59;91091.47;;;11.32;75.12
63493;BME280;49638;47.526;10.028;2023-04-21T10:51:00;91102.06;;;11.37;74.56
63493;BME280;49638;47.526;10.028;2023-04-21T10:54:03;91092.03;;;11.40;73.12
63493;BME280;49638;47.526;10.028;2023-04-21T10:57:05;91097.84;;;11.42;74.02
63493;BME280;49638;47.526;10.028;2023-04-21T11:00:07;91091.50;;;11.48;74.07
63493;BME280;49638;47.526;10.028;2023-04-21T11:03:09;91089.41;;;11.55;73.77
63493;BME280;49638;47.526;10.028;2023-04-21T11:06:16;91092.31;;;11.58;72.87
63493;BME280;49638;47.526;10.028;2023-04-21T11:09:19;91085.69;;;11.56;73.25
63493;BME280;49638;47.526;10.028;2023-04-21T11:12:20;91091.50;;;11.63;73.29
63493;BME280;49638;47.526;10.028;2023-04-21T11:15:20;91083.56;;;11.68;72.67
63493;BME280;49638;47.526;10.028;2023-04-21T11:18:20;91070.88;;;11.65;72.78
63493;BME280;49638;47.526;10.028;2023-04-21T11:21:21;91082.00;;;11.72;73.10
63493;BME280;49638;47.526;10.028;2023-04-21T11:24:23;91074.81;;;11.78;72.67
63493;BME280;49638;47.526;10.028;2023-04-21T11:27:28;91082.78;;;11.83;71.84
63493;BME280;49638;47.526;10.028;2023-04-21T11:30:32;91081.47;;;11.91;72.93
63493;BME280;49638;47.526;10.028;2023-04-21T11:33:39;91067.97;;;11.97;70.57
63493;BME280;49638;47.526;10.028;2023-04-21T11:36:43;91070.88;;;12.01;72.21
63493;BME280;49638;47.526;10.028;2023-04-21T11:39:43;91076.69;;;12.03;72.20
63493;BME280;49638;47.526;10.028;2023-04-21T11:42:44;91072.19;;;12.08;71.65
63493;BME280;49638;47.526;10.028;2023-04-21T11:45:48;91072.19;;;12.14;70.44
63493;BME280;49638;47.526;10.028;2023-04-21T11:51:57;91057.34;;;12.23;70.69
63493;BME280;49638;47.526;10.028;2023-04-21T11:55:11;91062.31;;;12.35;70.21
63493;BME280;49638;47.526;10.028;2023-04-21T11:58:12;91064.94;;;12.40;70.02
63493;BME280;49638;47.526;10.028;2023-04-21T12:01:15;91055.41;;;12.44;69.64
63493;BME280;49638;47.526;10.028;2023-04-21T12:04:22;91068.09;;;12.52;68.09
63493;BME280;49638;47.526;10.028;2023-04-21T12:07:23;91066.25;;;12.58;68.91
63493;BME280;49638;47.526;10.028;2023-04-21T12:10:23;91064.09;;;12.65;68.61
63493;BME280;49638;47.526;10.028;2023-04-21T12:13:26;91055.31;;;12.69;68.27
63493;BME280;49638;47.526;10.028;2023-04-21T12:16:27;91067.72;;;12.79;68.15
63493;BME280;49638;47.526;10.028;2023-04-21T12:19:38;91071.41;;;12.83;63.55
63493;BME280;49638;47.526;10.028;2023-04-21T12:22:39;91068.47;;;12.90;67.49
63493;BME280;49638;47.526;10.028;2023-04-21T12:25:39;91068.72;;;12.93;67.03
63493;BME280;49638;47.526;10.028;2023-04-21T12:28:41;91072.41;;;12.97;66.79
63493;BME280;49638;47.526;10.028;2023-04-21T12:31:41;91060.53;;;12.90;66.02
63493;BME280;49638;47.526;10.028;2023-04-21T12:34:41;91065.81;;;12.95;66.07
63493;BME280;49638;47.526;10.028;2023-04-21T12:37:43;91069.22;;;13.00;65.72
63493;BME280;49638;47.526;10.028;2023-04-21T12:40:43;91075.03;;;13.08;65.83
63493;BME280;49638;47.526;10.028;2023-04-21T12:43:44;91053.28;;;13.06;65.55
63493;BME280;49638;47.526;10.028;2023-04-21T12:46:45;91069.16;;;13.16;65.34
63493;BME280;49638;47.526;10.028;2023-04-21T12:49:47;91063.06;;;13.15;65.17
63493;BME280;49638;47.526;10.028;2023-04-21T12:52:48;91050.56;;;13.16;64.73
63493;BME280;49638;47.526;10.028;2023-04-21T12:55:50;91063.78;;;13.21;64.57
63493;BME280;49638;47.526;10.028;2023-04-21T12:58:50;91047.63;;;13.17;64.36
63493;BME280;49638;47.526;10.028;2023-04-21T13:01:51;91061.41;;;13.24;64.26
63493;BME280;49638;47.526;10.028;2023-04-21T13:04:51;91061.41;;;13.30;64.16
63493;BME280;49638;47.526;10.028;2023-04-21T13:07:51;91065.88;;;13.34;63.63
63493;BME280;49638;47.526;10.028;2023-04-21T13:10:52;91058.44;;;13.36;63.50
63493;BME280;49638;47.526;10.028;2023-04-21T13:13:52;91060.31;;;13.36;63.59
63493;BME280;49638;47.526;10.028;2023-04-21T13:16:52;91056.56;;;13.42;63.20
63493;BME280;49638;47.526;10.028;2023-04-21T13:19:53;91062.28;;;13.54;63.66
63493;BME280;49638;47.526;10.028;2023-04-21T13:22:53;91056.66;;;13.61;63.74
63493;BME280;49638;47.526;10.028;2023-04-21T13:25:54;91043.06;;;13.72;63.25
63493;BME280;49638;47.526;10.028;2023-04-21T13:28:54;91055.16;;;13.84;62.89
63493;BME280;49638;47.526;10.028;2023-04-21T13:31:55;91054.84;;;13.90;63.19
63493;BME280;49638;47.526;10.028;2023-04-21T13:34:55;91055.53;;;14.01;63.26
63493;BME280;49638;47.526;10.028;2023-04-21T13:37:57;91052.00;;;14.11;63.16
63493;BME280;49638;47.526;10.028;2023-04-21T13:40:57;91055.34;;;14.22;62.55
63493;BME280;49638;47.526;10.028;2023-04-21T13:43:58;91061.03;;;14.39;62.21
63493;BME280;49638;47.526;10.028;2023-04-21T13:46:58;91054.50;;;14.55;61.74
63493;BME280;49638;47.526;10.028;2023-04-21T13:49:59;91046.94;;;14.68;61.88
63493;BME280;49638;47.526;10.028;2023-04-21T13:52:59;91043.50;;;14.86;61.17
63493;BME280;49638;47.526;10.028;2023-04-21T13:56:00;91045.41;;;15.04;60.58
63493;BME280;49638;47.526;10.028;2023-04-21T13:59:00;91038.59;;;15.17;59.63
63493;BME280;49638;47.526;10.028;2023-04-21T14:02:00;91045.59;;;15.32;59.15
63493;BME280;49638;47.526;10.028;2023-04-21T14:05:01;91042.13;;;15.50;59.18
63493;BME280;49638;47.526;10.028;2023-04-21T14:08:01;91046.19;;;15.61;59.59
63493;BME280;49638;47.526;10.028;2023-04-21T14:11:02;91046.66;;;15.69;59.02
63493;BME280;49638;47.526;10.028;2023-04-21T14:14:03;91042.13;;;15.69;59.00
63493;BME280;49638;47.526;10.028;2023-04-21T14:17:03;91043.19;;;15.68;59.47
63493;BME280;49638;47.526;10.028;2023-04-21T14:20:03;91040.47;;;15.73;59.29
63493;BME280;49638;47.526;10.028;2023-04-21T14:23:04;91039.16;;;15.71;59.04
63493;BME280;49638;47.526;10.028;2023-04-21T14:26:04;91050.19;;;15.83;58.65
63493;BME280;49638;47.526;10.028;2023-04-21T14:29:05;91041.88;;;15.84;59.10
63493;BME280;49638;47.526;10.028;2023-04-21T14:32:05;91047.16;;;15.90;59.01
63493;BME280;49638;47.526;10.028;2023-04-21T14:35:05;91032.22;;;15.89;59.27
63493;BME280;49638;47.526;10.028;2023-04-21T14:38:06;91042.22;;;15.97;59.40
63493;BME280;49638;47.526;10.028;2023-04-21T14:41:07;91036.84;;;15.83;59.41
63493;BME280;49638;47.526;10.028;2023-04-21T14:44:08;91048.00;;;15.85;59.48
63493;BME280;49638;47.526;10.028;2023-04-21T14:47:08;91048.69;;;15.77;59.49
63493;BME280;49638;47.526;10.028;2023-04-21T14:50:09;91043.41;;;15.72;59.61
63493;BME280;49638;47.526;10.028;2023-04-21T14:53:09;91043.72;;;15.70;59.45
63493;BME280;49638;47.526;10.028;2023-04-21T14:56:10;91039.69;;;15.73;59.29
63493;BME280;49638;47.526;10.028;2023-04-21T14:59:10;91041.16;;;15.79;59.69
63493;BME280;49638;47.526;10.028;2023-04-21T15:02:11;91047.22;;;15.84;59.39
63493;BME280;49638;47.526;10.028;2023-04-21T15:05:11;91045.34;;;15.85;59.37
63493;BME280;49638;47.526;10.028;2023-04-21T15:08:12;91043.25;;;15.82;59.03
63493;BME280;49638;47.526;10.028;2023-04-21T15:11:17;91042.56;;;15.76;58.72
63493;BME280;49638;47.526;10.028;2023-04-21T15:14:17;91037.63;;;15.65;58.61
63493;BME280;49638;47.526;10.028;2023-04-21T15:17:17;91051.03;;;15.59;58.11
63493;BME280;49638;47.526;10.028;2023-04-21T15:20:17;91037.94;;;15.44;57.79
63493;BME280;49638;47.526;10.028;2023-04-21T15:23:18;91029.63;;;15.32;57.76
63493;BME280;49638;47.526;10.028;2023-04-21T15:26:18;91053.28;;;15.33;57.87
63493;BME280;49638;47.526;10.028;2023-04-21T15:29:20;91047.00;;;15.24;57.92
63493;BME280;49638;47.526;10.028;2023-04-21T15:32:20;91054.34;;;15.13;57.88
63493;BME280;49638;47.526;10.028;2023-04-21T15:35:21;91059.78;;;15.03;58.19
63493;BME280;49638;47.526;10.028;2023-04-21T15:38:21;91058.25;;;14.97;58.31
63493;BME280;49638;47.526;10.028;2023-04-21T15:41:21;91050.72;;;14.85;58.26
63493;BME280;49638;47.526;10.028;2023-04-21T15:44:24;91057.38;;;14.83;58.57
63493;BME280;49638;47.526;10.028;2023-04-21T15:47:25;91055.59;;;14.78;58.53
63493;BME280;49638;47.526;10.028;2023-04-21T15:50:25;91049.47;;;14.78;58.80
63493;BME280;49638;47.526;10.028;2023-04-21T15:53:25;91045.56;;;14.70;58.34
63493;BME280;49638;47.526;10.028;2023-04-21T15:56:26;91043.00;;;14.60;58.31
63493;BME280;49638;47.526;10.028;2023-04-21T15:59:26;91057.63;;;14.62;58.28